Time;durP1;ratioP1;P1;durP2;ratioP2;P2;SDS_P1;SDS_P2;PMS_P1;PMS_P2;Temp;Humidity;BMP_temperature;BMP_pressure;BME280_temperature;BME280_humidity;BME280_pressure;Samples;Min_cycle;Max_cycle;Signal;HPM_P1;HPM_P2
2024/01/28 00:02:16;;;;;;;18.23;7.82;;;2.40;99.90;;;;;;5118320;27;20446;-76
2024/01/28 00:04:41;;;;;;;14.60;6.88;;;2.30;99.90;;;;;;5136768;27;20402;-76
2024/01/28 00:07:07;;;;;;;14.18;6.72;;;2.30;99.90;;;;;;5133956;27;20035;-76
2024/01/28 00:09:32;;;;;;;16.88;7.32;;;2.40;99.90;;;;;;5136902;27;20043;-76
2024/01/28 00:11:58;;;;;;;15.05;8.35;;;2.40;99.90;;;;;;5136953;27;20042;-77
2024/01/28 00:14:23;;;;;;;18.40;6.63;;;2.30;99.90;;;;;;5101479;27;20521;-77
2024/01/28 00:16:49;;;;;;;17.42;6.97;;;2.20;99.90;;;;;;5115705;27;20100;-77
2024/01/28 00:19:15;;;;;;;17.00;7.47;;;2.20;99.90;;;;;;5134921;27;20045;-76
2024/01/28 00:21:41;;;;;;;15.32;7.03;;;2.30;99.90;;;;;;5118328;27;20074;-76
2024/01/28 00:24:07;;;;;;;13.43;6.63;;;2.30;99.90;;;;;;5134880;27;20031;-77
2024/01/28 00:26:39;;;;;;;14.90;6.38;;;2.30;99.90;;;;;;5101374;27;20035;-77
2024/01/28 00:29:06;;;;;;;16.10;7.38;;;2.20;99.90;;;;;;5115433;27;20048;-76
2024/01/28 00:31:32;;;;;;;16.05;7.95;;;2.30;99.90;;;;;;5115337;27;20126;-78
2024/01/28 00:33:59;;;;;;;18.50;7.72;;;2.20;99.90;;;;;;5115902;27;20502;-76
2024/01/28 00:36:25;;;;;;;16.42;7.20;;;2.30;99.90;;;;;;5101967;27;20476;-79
2024/01/28 00:38:50;;;;;;;13.60;7.20;;;2.30;99.90;;;;;;5099186;27;20155;-77
2024/01/28 00:41:26;;;;;;;14.35;7.68;;;2.40;99.90;;;;;;5117573;27;20039;-79
2024/01/28 00:43:52;;;;;;;15.07;7.80;;;2.20;99.90;;;;;;5133185;27;20485;-78
2024/01/28 00:46:20;;;;;;;18.60;7.47;;;2.30;99.90;;;;;;5133224;27;20042;-78
2024/01/28 00:48:46;;;;;;;15.05;7.05;;;2.30;99.90;;;;;;5114442;27;20091;-78
2024/01/28 00:51:12;;;;;;;17.65;6.95;;;2.30;99.90;;;;;;5119150;27;20043;-78
2024/01/28 00:53:38;;;;;;;15.98;7.13;;;2.20;99.90;;;;;;5134961;27;20039;-79
2024/01/28 00:56:04;;;;;;;14.73;8.05;;;2.10;99.90;;;;;;5134999;27;20035;-77
2024/01/28 00:58:30;;;;;;;12.02;7.60;;;2.10;99.90;;;;;;5114194;27;20135;-76
2024/01/28 01:00:55;;;;;;;16.17;7.97;;;2.20;99.90;;;;;;5133129;27;20035;-76
2024/01/28 01:03:21;;;;;;;16.80;7.88;;;2.20;99.90;;;;;;5098290;27;20031;-77
2024/01/28 01:05:47;;;;;;;16.75;7.28;;;2.20;99.90;;;;;;5115060;27;20031;-77
2024/01/28 01:08:12;;;;;;;13.35;6.82;;;2.20;99.90;;;;;;5115316;27;20031;-77
2024/01/28 01:10:38;;;;;;;14.80;7.35;;;2.10;99.90;;;;;;5100874;27;20612;-76
2024/01/28 01:13:04;;;;;;;24.73;9.10;;;2.10;99.90;;;;;;5136377;27;20056;-77
2024/01/28 01:15:29;;;;;;;19.17;7.60;;;2.00;99.90;;;;;;5135928;27;20406;-76
2024/01/28 01:17:56;;;;;;;19.10;7.50;;;2.00;99.90;;;;;;5117631;27;20039;-76
2024/01/28 01:20:22;;;;;;;17.75;9.68;;;2.10;99.90;;;;;;5114793;28;20031;-77
2024/01/28 01:22:48;;;;;;;21.05;8.05;;;2.10;99.90;;;;;;5117399;28;20031;-76
2024/01/28 01:25:14;;;;;;;21.98;8.38;;;2.20;99.90;;;;;;5133313;27;20068;-78
2024/01/28 01:27:40;;;;;;;17.83;8.38;;;2.10;99.90;;;;;;5114057;27;20164;-76
2024/01/28 01:30:07;;;;;;;18.02;8.75;;;2.20;99.90;;;;;;5116203;27;20039;-79
2024/01/28 01:32:35;;;;;;;18.67;7.95;;;2.10;99.90;;;;;;5115569;28;20174;-79
2024/01/28 01:35:01;;;;;;;18.95;8.40;;;2.20;99.90;;;;;;5115557;28;20506;-77
2024/01/28 01:37:27;;;;;;;21.10;8.85;;;2.20;99.90;;;;;;5114857;28;20054;-77
2024/01/28 01:39:52;;;;;;;16.10;8.10;;;2.20;99.90;;;;;;5097501;28;20043;-78
2024/01/28 01:42:18;;;;;;;14.93;9.00;;;2.30;99.90;;;;;;5115940;28;20049;-79
2024/01/28 01:44:44;;;;;;;24.65;8.88;;;2.30;99.90;;;;;;5118108;27;20035;-77
2024/01/28 01:47:10;;;;;;;21.05;7.93;;;2.30;99.90;;;;;;5118364;27;20064;-78
2024/01/28 01:49:36;;;;;;;22.20;9.02;;;2.30;99.90;;;;;;5121734;27;20102;-78
2024/01/28 01:52:03;;;;;;;12.45;7.05;;;2.30;99.90;;;;;;5118057;27;20035;-77
2024/01/28 01:54:29;;;;;;;17.67;7.82;;;2.30;99.90;;;;;;5118134;27;20028;-77
2024/01/28 01:56:56;;;;;;;17.83;7.95;;;2.30;99.90;;;;;;5118324;27;20104;-77
2024/01/28 01:59:22;;;;;;;16.30;7.50;;;2.30;99.90;;;;;;5102057;27;20078;-78
2024/01/28 02:01:48;;;;;;;19.20;8.40;;;2.30;99.90;;;;;;5117981;27;20090;-78
2024/01/28 02:04:14;;;;;;;18.15;8.13;;;2.20;99.90;;;;;;5102482;27;20502;-77
2024/01/28 02:06:39;;;;;;;20.88;10.18;;;2.30;99.90;;;;;;5126557;27;20047;-79
2024/01/28 02:09:06;;;;;;;16.15;9.73;;;2.20;99.90;;;;;;5078673;28;20036;-78
2024/01/28 02:11:32;;;;;;;22.13;9.27;;;2.20;99.90;;;;;;5093828;28;20514;-79
2024/01/28 02:13:58;;;;;;;13.65;7.00;;;2.30;99.90;;;;;;5128194;27;20117;-78
2024/01/28 02:16:27;;;;;;;20.02;7.88;;;2.20;99.90;;;;;;5094044;28;20044;-77
2024/01/28 02:18:52;;;;;;;15.95;8.15;;;2.40;99.90;;;;;;5095489;28;20119;-78
2024/01/28 02:21:18;;;;;;;12.07;7.68;;;2.30;99.90;;;;;;5129943;27;20078;-78
2024/01/28 02:23:43;;;;;;;18.27;8.82;;;2.30;99.90;;;;;;5095170;28;20081;-77
2024/01/28 02:26:09;;;;;;;13.35;7.57;;;2.30;99.90;;;;;;5093722;28;20040;-77
2024/01/28 02:28:35;;;;;;;22.63;9.70;;;2.30;99.90;;;;;;5094598;28;20070;-78
2024/01/28 02:31:01;;;;;;;20.83;10.02;;;2.30;99.90;;;;;;5110596;28;20075;-77
2024/01/28 02:33:26;;;;;;;22.25;8.85;;;2.30;99.90;;;;;;5076638;28;20464;-78
2024/01/28 02:35:52;;;;;;;31.08;8.98;;;2.40;99.90;;;;;;5127576;27;20040;-77
2024/01/28 02:38:17;;;;;;;19.30;7.72;;;2.20;99.90;;;;;;5094817;28;20181;-77
2024/01/28 02:40:45;;;;;;;23.00;8.82;;;2.40;99.90;;;;;;5094671;28;20040;-77
2024/01/28 02:43:10;;;;;;;18.95;8.48;;;2.20;99.90;;;;;;5076626;28;20032;-78
2024/01/28 02:45:36;;;;;;;19.15;8.80;;;2.20;99.90;;;;;;5094296;28;20040;-78
2024/01/28 02:48:01;;;;;;;17.90;8.07;;;2.30;99.90;;;;;;5095570;28;20411;-78
2024/01/28 02:50:27;;;;;;;20.30;9.00;;;2.30;99.90;;;;;;5077595;28;20396;-78
2024/01/28 02:52:53;;;;;;;23.48;8.48;;;2.30;99.90;;;;;;5095762;28;20085;-77
2024/01/28 02:55:19;;;;;;;16.52;8.95;;;2.40;99.90;;;;;;5111541;28;20043;-78
2024/01/28 02:57:44;;;;;;;23.02;9.43;;;2.30;99.90;;;;;;5095750;28;20464;-78
2024/01/28 03:00:10;;;;;;;14.93;8.27;;;2.30;99.90;;;;;;5095149;28;20066;-78
2024/01/28 03:02:39;;;;;;;17.30;9.60;;;2.40;99.90;;;;;;5096257;28;20032;-77
2024/01/28 03:05:08;;;;;;;23.00;9.27;;;2.40;99.90;;;;;;5094119;28;20441;-77
2024/01/28 03:07:34;;;;;;;18.30;8.90;;;2.40;99.90;;;;;;5095173;28;20489;-77
2024/01/28 03:10:00;;;;;;;26.63;10.57;;;2.30;99.90;;;;;;5096984;28;20086;-78
2024/01/28 03:12:26;;;;;;;18.13;9.95;;;2.40;99.90;;;;;;5094376;28;20047;-78
2024/01/28 03:14:52;;;;;;;22.40;10.05;;;2.20;99.90;;;;;;5101781;28;20448;-77
2024/01/28 03:17:18;;;;;;;22.27;9.75;;;2.20;99.90;;;;;;5093489;28;20118;-78
2024/01/28 03:19:43;;;;;;;24.63;11.23;;;2.20;99.90;;;;;;5093878;28;20178;-78
2024/01/28 03:22:09;;;;;;;21.70;10.18;;;2.40;99.90;;;;;;5076013;28;20044;-78
2024/01/28 03:24:35;;;;;;;18.85;10.20;;;2.20;99.90;;;;;;5075713;28;20043;-77
2024/01/28 03:27:00;;;;;;;23.10;10.00;;;2.30;99.90;;;;;;5093909;28;20040;-77
2024/01/28 03:29:27;;;;;;;21.58;10.75;;;2.10;99.90;;;;;;5092241;28;20036;-77
2024/01/28 03:31:52;;;;;;;18.02;10.10;;;2.20;99.90;;;;;;5096934;28;20107;-78
2024/01/28 03:34:18;;;;;;;17.05;10.68;;;2.20;99.90;;;;;;5094744;28;20075;-77
2024/01/28 03:36:43;;;;;;;23.17;11.20;;;2.20;99.90;;;;;;5092446;28;20039;-77
2024/01/28 03:39:09;;;;;;;22.05;10.82;;;2.20;99.90;;;;;;5096440;28;20032;-78
2024/01/28 03:41:35;;;;;;;20.52;10.40;;;2.30;99.90;;;;;;5095182;28;20039;-77
2024/01/28 03:44:00;;;;;;;19.88;11.05;;;2.30;99.90;;;;;;5093256;28;20465;-78
2024/01/28 03:46:26;;;;;;;18.20;10.57;;;2.30;99.90;;;;;;5095065;28;20479;-77
2024/01/28 03:48:51;;;;;;;19.60;11.02;;;2.40;99.90;;;;;;5094250;28;20089;-78
2024/01/28 03:51:17;;;;;;;25.27;11.38;;;2.40;99.90;;;;;;5093281;28;20036;-78
2024/01/28 03:53:43;;;;;;;25.38;10.27;;;2.30;99.90;;;;;;5075567;28;20044;-77
2024/01/28 03:56:09;;;;;;;22.45;10.65;;;2.40;99.90;;;;;;5075101;28;20047;-77
2024/01/28 03:58:35;;;;;;;19.33;10.60;;;2.30;99.90;;;;;;5092881;28;20048;-78
2024/01/28 04:01:01;;;;;;;24.73;10.52;;;2.40;99.90;;;;;;5092612;28;20044;-77
2024/01/28 04:03:26;;;;;;;17.67;10.30;;;2.30;99.90;;;;;;5092945;28;20506;-77
2024/01/28 04:05:52;;;;;;;24.02;11.98;;;2.30;99.90;;;;;;5076129;28;20036;-77
2024/01/28 04:08:18;;;;;;;27.45;11.23;;;2.30;99.90;;;;;;5074723;28;20040;-77
2024/01/28 04:10:43;;;;;;;20.52;10.23;;;2.30;99.90;;;;;;5112690;22;20048;-73
2024/01/28 04:13:09;;;;;;;22.63;12.18;;;2.40;99.90;;;;;;5092565;28;20028;-72
2024/01/28 04:15:35;;;;;;;21.02;10.52;;;2.30;99.90;;;;;;5093077;28;20036;-72
2024/01/28 04:18:00;;;;;;;15.73;10.00;;;2.30;99.90;;;;;;5074831;28;20035;-73
2024/01/28 04:20:26;;;;;;;22.30;10.98;;;2.20;99.90;;;;;;5092617;28;20090;-73
2024/01/28 04:22:51;;;;;;;21.70;10.75;;;2.30;99.90;;;;;;5092881;28;20068;-73
2024/01/28 04:25:19;;;;;;;22.55;11.65;;;2.20;99.90;;;;;;5092635;28;20102;-72
2024/01/28 04:27:45;;;;;;;22.33;11.45;;;2.10;99.90;;;;;;5092637;28;20164;-72
2024/01/28 04:30:11;;;;;;;25.25;10.57;;;2.10;99.90;;;;;;5092784;28;20036;-72
2024/01/28 04:32:36;;;;;;;22.35;10.55;;;2.10;99.90;;;;;;5092718;28;20044;-73
2024/01/28 04:35:02;;;;;;;19.77;10.20;;;2.10;99.90;;;;;;5092639;28;20035;-72
2024/01/28 04:37:29;;;;;;;18.38;10.55;;;2.10;99.90;;;;;;5092467;28;20495;-73
2024/01/28 04:39:55;;;;;;;21.92;10.98;;;1.90;99.90;;;;;;5073881;28;20131;-72
2024/01/28 04:42:23;;;;;;;20.55;10.32;;;2.00;99.90;;;;;;5092622;28;20043;-73
2024/01/28 04:44:49;;;;;;;24.08;10.95;;;2.10;99.90;;;;;;5091082;28;20058;-72
2024/01/28 04:47:15;;;;;;;17.83;10.35;;;2.10;99.90;;;;;;5091068;28;20427;-72
2024/01/28 04:49:41;;;;;;;25.25;11.15;;;1.90;99.90;;;;;;5090755;28;20047;-72
2024/01/28 04:52:07;;;;;;;24.88;10.73;;;1.80;99.90;;;;;;5092324;28;20407;-72
2024/01/28 04:54:33;;;;;;;22.33;11.30;;;1.90;99.90;;;;;;5090874;28;20033;-72
2024/01/28 04:57:01;;;;;;;21.90;11.00;;;2.00;99.90;;;;;;5090813;28;20036;-72
2024/01/28 04:59:29;;;;;;;24.80;11.65;;;1.90;99.90;;;;;;5090535;28;20040;-73
2024/01/28 05:01:55;;;;;;;18.60;10.20;;;2.00;99.90;;;;;;5090859;28;20051;-72
2024/01/28 05:04:21;;;;;;;19.58;10.60;;;1.80;99.90;;;;;;5092170;28;20047;-72
2024/01/28 05:06:47;;;;;;;21.25;10.63;;;1.80;99.90;;;;;;5090775;28;20067;-72
2024/01/28 05:09:13;;;;;;;19.20;10.95;;;1.70;99.90;;;;;;5091441;28;20079;-72
2024/01/28 05:11:39;;;;;;;20.23;11.50;;;1.80;99.90;;;;;;5090736;28;20039;-72
2024/01/28 05:14:04;;;;;;;21.05;10.95;;;1.90;99.90;;;;;;5090724;28;20473;-73
2024/01/28 05:16:31;;;;;;;28.48;11.80;;;1.80;99.90;;;;;;5090810;28;20044;-72
2024/01/28 05:18:57;;;;;;;25.90;10.55;;;1.80;99.90;;;;;;5089646;28;20044;-72
2024/01/28 05:21:25;;;;;;;21.50;9.93;;;1.80;99.90;;;;;;5091436;28;20599;-72
2024/01/28 05:23:51;;;;;;;16.83;10.77;;;1.80;99.90;;;;;;5091711;28;20414;-72
2024/01/28 05:26:19;;;;;;;19.77;11.13;;;1.80;99.90;;;;;;5091740;28;20036;-72
2024/01/28 05:28:45;;;;;;;24.10;10.55;;;1.70;99.90;;;;;;5090337;28;20036;-73
2024/01/28 05:31:11;;;;;;;21.75;9.98;;;1.70;99.90;;;;;;5091836;28;20503;-73
2024/01/28 05:33:37;;;;;;;20.77;10.27;;;1.70;99.90;;;;;;5091807;28;20036;-72
2024/01/28 05:36:13;;;;;;;22.10;10.20;;;1.90;99.90;;;;;;5090550;28;20044;-72
2024/01/28 05:38:39;;;;;;;15.65;10.55;;;1.70;99.90;;;;;;5090578;28;20044;-72
2024/01/28 05:41:06;;;;;;;19.45;10.25;;;1.80;99.90;;;;;;5091478;28;20050;-72
2024/01/28 05:43:32;;;;;;;24.85;9.65;;;1.70;99.90;;;;;;5091745;28;20050;-72
2024/01/28 05:45:59;;;;;;;21.65;10.57;;;1.80;99.90;;;;;;5090361;28;20031;-72
2024/01/28 05:48:24;;;;;;;21.92;11.85;;;1.70;99.90;;;;;;5091455;28;20071;-72
2024/01/28 05:50:50;;;;;;;21.23;10.43;;;1.80;99.90;;;;;;5089953;28;20043;-73
2024/01/28 05:53:15;;;;;;;17.95;10.02;;;1.70;99.90;;;;;;5091654;28;20036;-72
2024/01/28 05:55:41;;;;;;;19.20;10.00;;;1.60;99.90;;;;;;5091344;28;20408;-72
2024/01/28 05:58:07;;;;;;;17.35;9.95;;;1.60;99.90;;;;;;5091441;28;20090;-72
2024/01/28 06:00:32;;;;;;;23.85;11.13;;;1.70;99.90;;;;;;5091262;28;20043;-72
2024/01/28 06:02:58;;;;;;;18.88;9.60;;;1.80;99.90;;;;;;5091522;28;20449;-73
2024/01/28 06:05:23;;;;;;;18.33;9.95;;;1.70;99.90;;;;;;5091318;28;20036;-73
2024/01/28 06:07:49;;;;;;;18.02;9.35;;;1.60;99.90;;;;;;5091481;28;20086;-72
2024/01/28 06:10:15;;;;;;;16.92;9.18;;;1.60;99.90;;;;;;5091064;28;20036;-73
2024/01/28 06:12:40;;;;;;;17.25;9.57;;;1.70;99.90;;;;;;5091490;28;20122;-72
2024/01/28 06:15:08;;;;;;;22.50;10.13;;;1.70;99.90;;;;;;5091414;28;20499;-73
2024/01/28 06:17:36;;;;;;;22.92;9.90;;;1.50;99.90;;;;;;5091265;28;20048;-72
2024/01/28 06:20:04;;;;;;;20.75;9.32;;;1.70;99.90;;;;;;5090902;28;20115;-72
2024/01/28 06:22:29;;;;;;;18.88;9.77;;;1.70;99.90;;;;;;5090266;28;20534;-72
2024/01/28 06:24:55;;;;;;;17.40;9.90;;;1.70;99.90;;;;;;5089858;28;20132;-72
2024/01/28 06:27:21;;;;;;;17.35;10.43;;;1.60;99.90;;;;;;5090961;28;20041;-72
2024/01/28 06:29:47;;;;;;;15.25;9.40;;;1.60;99.90;;;;;;5090866;28;20093;-72
2024/01/28 06:32:13;;;;;;;17.42;8.93;;;1.70;99.90;;;;;;5094214;28;20111;-72
2024/01/28 06:34:39;;;;;;;16.10;9.52;;;1.70;99.90;;;;;;5093505;28;20399;-72
2024/01/28 06:37:04;;;;;;;21.20;9.43;;;1.60;99.90;;;;;;5093513;28;20040;-72
2024/01/28 06:39:31;;;;;;;21.98;9.82;;;1.70;99.90;;;;;;5093195;28;20040;-72
2024/01/28 06:41:57;;;;;;;23.52;9.85;;;1.60;99.90;;;;;;5094908;28;20036;-73
2024/01/28 06:44:23;;;;;;;23.67;9.15;;;1.60;99.90;;;;;;5094700;28;20488;-73
2024/01/28 06:46:48;;;;;;;15.30;9.70;;;1.50;99.90;;;;;;5094643;28;20031;-73
2024/01/28 06:49:14;;;;;;;13.93;9.68;;;1.60;99.90;;;;;;5094181;28;20491;-72
2024/01/28 06:51:42;;;;;;;20.25;9.40;;;1.60;99.90;;;;;;5094599;28;20040;-72
2024/01/28 06:54:10;;;;;;;18.20;10.07;;;1.50;99.90;;;;;;5094681;28;20048;-73
2024/01/28 06:56:36;;;;;;;22.58;10.63;;;1.50;99.90;;;;;;5094484;28;20169;-72
2024/01/28 06:59:02;;;;;;;17.90;9.68;;;1.70;99.90;;;;;;5094238;28;20057;-72
2024/01/28 07:01:27;;;;;;;19.50;10.30;;;1.50;99.90;;;;;;5093132;28;20036;-72
2024/01/28 07:03:53;;;;;;;18.13;9.45;;;1.60;99.90;;;;;;5093309;28;20483;-72
2024/01/28 07:06:18;;;;;;;16.70;9.65;;;1.40;99.90;;;;;;5094392;28;20075;-72
2024/01/28 07:08:44;;;;;;;13.32;8.85;;;1.40;99.90;;;;;;5093958;28;20036;-72
2024/01/28 07:11:11;;;;;;;16.88;10.02;;;1.40;99.90;;;;;;5094115;28;20036;-72
2024/01/28 07:13:36;;;;;;;18.25;10.25;;;1.60;99.90;;;;;;5092836;28;20044;-72
2024/01/28 07:16:03;;;;;;;19.83;9.75;;;1.60;99.90;;;;;;5093862;28;20054;-72
2024/01/28 07:18:29;;;;;;;18.35;9.73;;;1.50;99.90;;;;;;5092619;28;20413;-72
2024/01/28 07:20:54;;;;;;;14.88;9.55;;;1.40;99.90;;;;;;5093869;28;20119;-72
2024/01/28 07:23:20;;;;;;;16.73;9.20;;;1.40;99.90;;;;;;5094054;28;20506;-73
2024/01/28 07:25:46;;;;;;;23.38;9.77;;;1.40;99.90;;;;;;5075721;28;20058;-73
2024/01/28 07:28:12;;;;;;;22.02;10.10;;;1.50;99.90;;;;;;5093624;28;20508;-72
2024/01/28 07:30:37;;;;;;;17.38;9.82;;;1.50;99.90;;;;;;5092209;28;20040;-73
2024/01/28 07:33:07;;;;;;;19.35;8.90;;;1.40;99.90;;;;;;5092645;28;20043;-72
2024/01/28 07:35:33;;;;;;;19.63;8.95;;;1.40;99.90;;;;;;5093856;28;20146;-73
2024/01/28 07:37:59;;;;;;;16.35;8.52;;;1.40;99.90;;;;;;5093576;28;20028;-72
2024/01/28 07:40:25;;;;;;;17.95;9.23;;;1.50;99.90;;;;;;5093301;28;20044;-72
2024/01/28 07:42:50;;;;;;;19.25;9.68;;;1.50;99.90;;;;;;5091483;28;20040;-72
2024/01/28 07:45:16;;;;;;;22.70;11.18;;;1.50;99.90;;;;;;5092098;28;20079;-72
2024/01/28 07:47:42;;;;;;;14.98;9.43;;;1.50;99.90;;;;;;5092252;28;20127;-73
2024/01/28 07:50:08;;;;;;;22.73;9.15;;;1.40;99.90;;;;;;5093329;28;20051;-73
2024/01/28 07:52:33;;;;;;;17.50;9.20;;;1.40;99.90;;;;;;5089762;28;20050;-73
2024/01/28 07:54:59;;;;;;;21.63;9.88;;;1.60;99.90;;;;;;5092914;28;20114;-72
2024/01/28 07:57:24;;;;;;;16.90;9.10;;;1.50;99.90;;;;;;5091523;28;20103;-73
2024/01/28 07:59:50;;;;;;;21.25;9.60;;;1.60;99.90;;;;;;5092737;28;20089;-72
2024/01/28 08:02:16;;;;;;;16.48;9.25;;;1.50;99.90;;;;;;5093384;28;20063;-72
2024/01/28 08:04:44;;;;;;;13.32;8.45;;;1.50;99.90;;;;;;5092992;28;20036;-72
2024/01/28 08:07:09;;;;;;;19.77;8.65;;;1.60;99.90;;;;;;5091967;28;20422;-72
2024/01/28 08:09:36;;;;;;;20.00;9.07;;;1.60;99.90;;;;;;5091302;28;20046;-74
2024/01/28 08:12:03;;;;;;;15.68;8.68;;;1.70;99.90;;;;;;5093064;28;20051;-73
2024/01/28 08:14:29;;;;;;;19.73;9.10;;;1.80;99.90;;;;;;5092896;28;20032;-73
2024/01/28 08:16:55;;;;;;;14.98;9.30;;;1.90;99.90;;;;;;5092810;28;20186;-73
2024/01/28 08:19:21;;;;;;;18.98;9.20;;;2.00;99.90;;;;;;5092717;28;20028;-73
2024/01/28 08:21:47;;;;;;;14.50;8.93;;;2.20;99.90;;;;;;5092668;28;20036;-73
2024/01/28 08:24:13;;;;;;;21.98;9.02;;;2.30;99.90;;;;;;5092858;28;20036;-73
2024/01/28 08:26:39;;;;;;;16.33;9.23;;;2.50;99.90;;;;;;5092727;28;20479;-73
2024/01/28 08:29:05;;;;;;;14.43;8.65;;;2.50;99.90;;;;;;5092310;28;20032;-74
2024/01/28 08:31:30;;;;;;;14.18;8.40;;;2.50;99.90;;;;;;5093063;28;20044;-73
2024/01/28 08:33:56;;;;;;;24.27;9.63;;;2.60;99.90;;;;;;5092466;28;20032;-73
2024/01/28 08:36:22;;;;;;;18.10;10.02;;;2.40;99.90;;;;;;5092309;28;20028;-73
2024/01/28 08:38:47;;;;;;;20.25;8.10;;;2.30;99.90;;;;;;5092247;28;20039;-73
2024/01/28 08:41:13;;;;;;;16.15;8.88;;;2.30;99.90;;;;;;5092435;28;20051;-73
2024/01/28 08:43:38;;;;;;;15.20;7.82;;;2.20;99.90;;;;;;5091790;28;20051;-73
2024/01/28 08:46:04;;;;;;;17.90;8.30;;;2.20;99.90;;;;;;5092396;28;20032;-73
2024/01/28 08:48:30;;;;;;;15.93;7.68;;;2.10;99.90;;;;;;5086573;28;20041;-73
2024/01/28 08:50:56;;;;;;;16.98;7.75;;;2.20;99.90;;;;;;5079519;28;20039;-73
2024/01/28 08:53:21;;;;;;;14.75;7.18;;;2.10;99.90;;;;;;5089943;28;20040;-73
2024/01/28 08:55:47;;;;;;;14.48;7.85;;;2.20;99.90;;;;;;5076657;28;20400;-73
2024/01/28 08:58:12;;;;;;;13.45;7.22;;;2.30;99.90;;;;;;5084026;28;20036;-73
2024/01/28 09:00:41;;;;;;;17.50;7.43;;;2.20;99.90;;;;;;5085410;28;20407;-74
2024/01/28 09:03:07;;;;;;;13.07;6.90;;;2.30;99.90;;;;;;5086660;28;20063;-73
2024/01/28 09:05:33;;;;;;;14.88;8.10;;;2.20;99.90;;;;;;5086534;28;20516;-74
2024/01/28 09:07:58;;;;;;;14.15;7.60;;;2.40;99.90;;;;;;5081469;28;20036;-73
2024/01/28 09:10:24;;;;;;;14.48;6.47;;;2.40;99.90;;;;;;5091429;28;20040;-73
2024/01/28 09:12:49;;;;;;;10.57;6.13;;;2.40;99.90;;;;;;5091619;28;20450;-73
2024/01/28 09:15:15;;;;;;;15.27;7.30;;;2.30;99.90;;;;;;5090224;28;20071;-74
2024/01/28 09:17:43;;;;;;;15.25;6.82;;;2.40;99.90;;;;;;5091815;28;20067;-73
2024/01/28 09:20:09;;;;;;;11.07;6.55;;;2.40;99.90;;;;;;5091422;28;20048;-73
2024/01/28 09:22:35;;;;;;;12.40;7.15;;;2.40;99.90;;;;;;5085307;28;20471;-74
2024/01/28 09:25:03;;;;;;;12.50;7.68;;;2.40;99.90;;;;;;5081323;28;20115;-74
2024/01/28 09:27:29;;;;;;;11.95;6.60;;;2.50;99.90;;;;;;5091200;28;20507;-73
2024/01/28 09:29:55;;;;;;;16.10;6.60;;;2.60;99.90;;;;;;5091463;28;20058;-73
2024/01/28 09:32:20;;;;;;;12.38;6.43;;;2.60;99.90;;;;;;5091521;28;20115;-73
2024/01/28 09:34:46;;;;;;;14.38;7.15;;;2.70;99.90;;;;;;5091597;28;20040;-74
2024/01/28 09:37:12;;;;;;;15.38;6.00;;;2.70;99.90;;;;;;5091422;28;20074;-74
2024/01/28 09:39:37;;;;;;;14.50;6.45;;;2.80;99.90;;;;;;5090970;28;20499;-74
2024/01/28 09:42:10;;;;;;;13.60;6.28;;;2.70;99.90;;;;;;5090078;28;20169;-73
2024/01/28 09:44:36;;;;;;;11.52;5.45;;;2.80;99.90;;;;;;5091368;28;20110;-73
2024/01/28 09:47:02;;;;;;;11.38;4.90;;;2.80;99.90;;;;;;5091439;28;20043;-73
2024/01/28 09:49:39;;;;;;;11.00;5.15;;;2.90;99.90;;;;;;5088826;28;20161;-73
2024/01/28 09:52:09;;;;;;;15.65;6.00;;;2.90;99.90;;;;;;5081045;28;20032;-73
2024/01/28 09:54:35;;;;;;;11.25;5.97;;;3.00;99.90;;;;;;5091042;28;20048;-73
2024/01/28 09:57:01;;;;;;;12.57;5.95;;;3.10;99.90;;;;;;5083966;28;20162;-74
2024/01/28 09:59:29;;;;;;;7.88;5.10;;;3.20;99.90;;;;;;5084731;28;20067;-73
2024/01/28 10:01:55;;;;;;;13.70;7.03;;;3.40;99.90;;;;;;5091204;28;20044;-74
2024/01/28 10:04:21;;;;;;;11.07;5.55;;;3.50;99.90;;;;;;5091343;28;20047;-73
2024/01/28 10:06:48;;;;;;;8.60;5.88;;;3.60;99.90;;;;;;5093566;28;20039;-73
2024/01/28 10:11:42;;;;;;;11.50;5.55;;;3.80;99.90;;;;;;5053913;28;20053;-74
2024/01/28 10:14:08;;;;;;;12.90;5.65;;;4.00;99.90;;;;;;5039951;28;20067;-75
2024/01/28 10:16:33;;;;;;;16.38;5.70;;;4.00;99.90;;;;;;5038716;28;20110;-74
2024/01/28 10:18:59;;;;;;;9.07;5.20;;;4.10;99.90;;;;;;5039840;28;20033;-75
2024/01/28 10:21:25;;;;;;;10.73;5.28;;;4.20;99.90;;;;;;5074511;28;20094;-76
2024/01/28 10:23:51;;;;;;;12.30;5.05;;;4.10;99.90;;;;;;5055393;28;20032;-74
2024/01/28 10:26:16;;;;;;;11.48;4.63;;;4.20;99.90;;;;;;5040526;28;20039;-75
2024/01/28 10:28:43;;;;;;;10.70;4.80;;;4.30;99.90;;;;;;5056626;28;20083;-75
2024/01/28 10:31:09;;;;;;;11.82;5.43;;;4.20;99.90;;;;;;5074852;28;20037;-75
2024/01/28 10:33:34;;;;;;;12.93;4.65;;;4.30;99.90;;;;;;5059524;28;20063;-76
2024/01/28 10:36:03;;;;;;;13.02;4.90;;;4.30;99.90;;;;;;5075084;28;20043;-76
2024/01/28 10:38:32;;;;;;;11.80;4.78;;;4.30;99.90;;;;;;5078403;28;20040;-76
2024/01/28 10:40:59;;;;;;;11.52;4.63;;;4.30;99.90;;;;;;5077229;28;20072;-76
2024/01/28 10:43:27;;;;;;;7.75;4.22;;;4.20;99.90;;;;;;5058211;28;20033;-76
2024/01/28 10:45:55;;;;;;;8.90;4.05;;;4.20;99.90;;;;;;5058821;28;20045;-77
2024/01/28 10:48:23;;;;;;;11.63;5.20;;;4.20;99.90;;;;;;5073152;28;20028;-77
2024/01/28 10:50:51;;;;;;;8.80;4.57;;;4.30;99.90;;;;;;5057311;28;20098;-75
2024/01/28 10:53:18;;;;;;;6.93;3.95;;;4.30;99.90;;;;;;5074030;28;20032;-76
2024/01/28 10:55:46;;;;;;;12.02;4.60;;;4.40;99.90;;;;;;5040383;28;20040;-75
2024/01/28 10:58:11;;;;;;;9.52;5.50;;;4.40;99.90;;;;;;5056975;28;20385;-77
2024/01/28 11:00:37;;;;;;;9.02;4.30;;;4.50;99.90;;;;;;5053744;28;20051;-76
2024/01/28 11:03:06;;;;;;;9.82;4.57;;;4.50;99.90;;;;;;5075146;28;20071;-75
2024/01/28 11:05:35;;;;;;;8.20;3.92;;;4.50;99.90;;;;;;5073648;28;20412;-76
2024/01/28 11:08:00;;;;;;;11.90;4.10;;;4.60;99.90;;;;;;5042969;28;20115;-76
2024/01/28 11:10:28;;;;;;;11.85;4.03;;;4.70;99.90;;;;;;5044817;28;20063;-77
2024/01/28 11:12:56;;;;;;;11.90;4.38;;;4.80;99.90;;;;;;5042023;28;20050;-77
2024/01/28 11:15:22;;;;;;;7.95;4.28;;;4.80;99.90;;;;;;5044026;28;20455;-77
2024/01/28 11:17:48;;;;;;;7.20;4.38;;;4.90;99.90;;;;;;5073222;28;20040;-77
2024/01/28 11:20:17;;;;;;;8.27;3.67;;;5.00;99.90;;;;;;5057449;28;20036;-77
2024/01/28 11:22:53;;;;;;;9.40;3.50;;;5.00;99.90;;;;;;5059453;28;20467;-77
2024/01/28 11:25:24;;;;;;;6.03;3.20;;;5.10;99.90;;;;;;5075261;28;20034;-77
2024/01/28 11:27:51;;;;;;;8.73;3.38;;;5.10;99.90;;;;;;5075036;28;20500;-76
2024/01/28 11:30:21;;;;;;;6.70;4.00;;;5.20;99.90;;;;;;5075382;28;20040;-77
2024/01/28 11:32:47;;;;;;;9.70;3.55;;;5.30;99.90;;;;;;5076871;28;20090;-76
2024/01/28 11:35:13;;;;;;;8.98;4.30;;;5.40;99.90;;;;;;5076243;28;20032;-76
2024/01/28 11:37:51;;;;;;;6.55;3.72;;;5.40;99.90;;;;;;5059213;28;20174;-75
2024/01/28 11:40:23;;;;;;;6.25;3.70;;;5.40;99.90;;;;;;5043234;28;20051;-76
2024/01/28 11:42:52;;;;;;;6.97;3.10;;;5.50;99.90;;;;;;5059993;28;20447;-77
2024/01/28 11:45:20;;;;;;;8.82;3.70;;;5.50;99.90;;;;;;5065988;28;20420;-77
2024/01/28 11:47:45;;;;;;;5.80;2.80;;;5.60;99.90;;;;;;5060591;28;20047;-76
2024/01/28 11:50:12;;;;;;;7.80;3.42;;;5.70;99.90;;;;;;5056874;28;20040;-77
2024/01/28 11:52:37;;;;;;;6.93;3.60;;;5.70;99.90;;;;;;5076051;28;20439;-77
2024/01/28 11:55:13;;;;;;;6.32;3.22;;;5.80;99.90;;;;;;5061704;28;20090;-78
2024/01/28 11:57:40;;;;;;;6.72;2.97;;;5.80;99.90;;;;;;5039036;28;20042;-75
2024/01/28 12:00:10;;;;;;;6.60;3.28;;;5.90;99.90;;;;;;5056011;28;20531;-75
2024/01/28 12:02:37;;;;;;;6.22;3.20;;;5.90;99.90;;;;;;5054683;28;20035;-76
2024/01/28 12:05:03;;;;;;;7.43;3.15;;;6.00;99.90;;;;;;5054948;28;20079;-77
2024/01/28 12:07:34;;;;;;;7.70;3.63;;;6.00;99.90;;;;;;5056488;28;20071;-77
2024/01/28 12:10:02;;;;;;;8.25;3.30;;;6.10;99.90;;;;;;5063787;28;20045;-77
2024/01/28 12:12:28;;;;;;;5.78;3.10;;;6.20;99.90;;;;;;5081351;28;20045;-77
2024/01/28 12:14:57;;;;;;;5.53;3.40;;;6.20;99.90;;;;;;5083551;28;20043;-76
2024/01/28 12:17:22;;;;;;;6.95;3.40;;;6.20;99.90;;;;;;5083518;28;20069;-77
2024/01/28 12:19:50;;;;;;;9.52;3.42;;;6.30;99.90;;;;;;5081376;28;20112;-76
2024/01/28 12:22:16;;;;;;;4.72;2.88;;;6.30;99.90;;;;;;5083589;28;20082;-77
2024/01/28 12:24:48;;;;;;;7.63;2.80;;;6.30;99.90;;;;;;5084660;28;20123;-77
2024/01/28 12:27:14;;;;;;;6.50;2.83;;;6.40;99.90;;;;;;5082975;28;20100;-78
2024/01/28 12:29:43;;;;;;;9.07;3.45;;;6.50;99.90;;;;;;5079456;28;20123;-78
2024/01/28 12:32:09;;;;;;;8.02;3.13;;;6.50;99.90;;;;;;5083644;28;20051;-77
2024/01/28 12:34:36;;;;;;;6.13;2.78;;;6.50;99.90;;;;;;5083849;28;20036;-77
2024/01/28 12:37:03;;;;;;;6.18;3.00;;;6.60;99.90;;;;;;5082224;28;20112;-77
2024/01/28 12:39:28;;;;;;;6.90;2.83;;;6.60;99.90;;;;;;5084409;28;20040;-77
2024/01/28 12:41:54;;;;;;;6.00;3.03;;;6.60;99.90;;;;;;5083163;28;20116;-78
2024/01/28 12:44:20;;;;;;;7.38;3.22;;;6.70;99.90;;;;;;5066358;28;20049;-78